createdAt,value
2022-10-15T00:00:09.603Z,79.26
2022-10-15T00:00:41.748Z,79.04
2022-10-15T00:01:16.821Z,79.18
2022-10-15T00:01:48.777Z,79.10
2022-10-15T00:02:20.870Z,78.43
2022-10-15T00:02:52.771Z,78.29
2022-10-15T00:03:24.613Z,78.23
2022-10-15T00:03:56.712Z,78.08
2022-10-15T00:04:30.963Z,78.71
2022-10-15T00:05:03.404Z,78.47
2022-10-15T00:05:40.205Z,78.28
2022-10-15T00:06:18.651Z,79.06
2022-10-15T00:06:50.509Z,79.29
2022-10-15T00:07:22.718Z,79.18
2022-10-15T00:07:54.934Z,79.01
2022-10-15T00:08:26.753Z,78.80
2022-10-15T00:08:58.643Z,78.82
2022-10-15T00:09:30.482Z,79.80
2022-10-15T00:10:02.323Z,80.58
2022-10-15T00:10:35.253Z,80.25
2022-10-15T00:11:20.095Z,81.12
2022-10-15T00:11:52.747Z,81.10
2022-10-15T00:12:25.259Z,80.81
2022-10-15T00:12:57.326Z,80.85
2022-10-15T00:13:29.368Z,80.85
2022-10-15T00:14:01.288Z,80.51
2022-10-15T00:14:33.202Z,80.21
2022-10-15T00:15:05.584Z,80.34
2022-10-15T00:15:38.000Z,80.34
2022-10-15T00:16:14.107Z,80.62
2022-10-15T00:16:46.245Z,80.25
2022-10-15T00:17:18.434Z,80.15
2022-10-15T00:17:50.387Z,80.02
2022-10-15T00:18:22.219Z,79.92
2022-10-15T00:18:59.501Z,79.98
2022-10-15T00:19:31.374Z,80.33
2022-10-15T00:20:08.852Z,80.62
2022-10-15T00:20:42.186Z,80.50
2022-10-15T00:21:16.242Z,80.22
2022-10-15T00:21:48.270Z,79.88
2022-10-15T00:22:20.697Z,79.63
2022-10-15T00:22:52.746Z,79.25
2022-10-15T00:23:24.629Z,79.16
2022-10-15T00:23:57.214Z,79.38
2022-10-15T00:24:29.072Z,78.94
2022-10-15T00:25:01.333Z,78.82
2022-10-15T00:25:33.191Z,79.01
2022-10-15T00:26:10.518Z,79.11
2022-10-15T00:26:42.393Z,78.44
2022-10-15T00:27:14.206Z,79.26
2022-10-15T00:27:46.568Z,79.68
2022-10-15T00:28:18.486Z,79.65
2022-10-15T00:28:52.652Z,79.66
2022-10-15T00:29:25.767Z,79.74
2022-10-15T00:30:00.211Z,79.71
2022-10-15T00:30:32.045Z,79.42
2022-10-15T00:31:07.416Z,79.45
2022-10-15T00:31:39.354Z,79.46
2022-10-15T00:32:11.399Z,79.72
2022-10-15T00:32:43.724Z,79.68
2022-10-15T00:33:15.858Z,79.43
2022-10-15T00:33:49.946Z,79.22
2022-10-15T00:34:21.788Z,79.05
2022-10-15T00:34:53.680Z,78.83
2022-10-15T00:35:25.559Z,78.76
2022-10-15T00:36:06.028Z,78.73
2022-10-15T00:36:38.252Z,78.94
2022-10-15T00:37:10.349Z,79.35
2022-10-15T00:37:44.108Z,79.70
2022-10-15T00:38:16.237Z,79.68
2022-10-15T00:38:49.074Z,79.40
2022-10-15T00:39:20.954Z,79.20
2022-10-15T00:39:52.954Z,79.38
2022-10-15T00:40:24.987Z,79.42
2022-10-15T00:40:58.074Z,79.18
2022-10-15T00:41:40.649Z,78.89
2022-10-15T00:42:12.563Z,78.81
2022-10-15T00:42:44.465Z,79.48
2022-10-15T00:43:17.146Z,79.84
2022-10-15T00:44:00.705Z,79.80
2022-10-15T00:44:33.603Z,79.66
2022-10-15T00:45:05.829Z,79.06
2022-10-15T00:45:37.726Z,79.04
2022-10-15T00:46:37.871Z,79.20
2022-10-15T00:47:18.557Z,78.45
2022-10-15T00:47:53.149Z,78.40
2022-10-15T00:48:25.858Z,78.73
2022-10-15T00:49:17.912Z,79.01
2022-10-15T00:50:00.024Z,78.94
2022-10-15T00:50:31.868Z,78.98
2022-10-15T00:51:05.153Z,79.11
2022-10-15T00:51:43.052Z,79.39
2022-10-15T00:52:19.523Z,79.62
2022-10-15T00:52:59.799Z,79.70
2022-10-15T00:53:32.475Z,79.54
2022-10-15T00:54:04.669Z,79.48
2022-10-15T00:55:02.115Z,79.66
2022-10-15T00:55:37.467Z,79.35
2022-10-15T00:56:09.612Z,79.28
2022-10-15T00:56:44.742Z,79.39
2022-10-15T00:57:17.021Z,79.01
2022-10-15T00:57:50.694Z,79.05
2022-10-15T00:58:28.239Z,79.21
2022-10-15T00:59:01.057Z,79.82
2022-10-15T00:59:36.955Z,80.15
2022-10-15T01:00:15.186Z,79.99
2022-10-15T01:00:47.161Z,80.04
2022-10-15T01:01:19.285Z,79.63
2022-10-15T01:01:52.458Z,79.42
2022-10-15T01:02:24.756Z,79.42
2022-10-15T01:02:56.906Z,79.33
2022-10-15T01:03:28.813Z,79.09
2022-10-15T01:04:02.752Z,79.25
2022-10-15T01:04:35.797Z,78.96
2022-10-15T01:05:09.023Z,79.44
2022-10-15T01:05:44.075Z,80.24
2022-10-15T01:06:16.390Z,80.14
2022-10-15T01:06:48.372Z,80.02
2022-10-15T01:07:20.306Z,79.95
2022-10-15T01:07:52.247Z,79.99
2022-10-15T01:08:24.221Z,79.94
2022-10-15T01:08:56.727Z,79.91
2022-10-15T01:09:28.943Z,79.78
2022-10-15T01:10:01.577Z,79.29
2022-10-15T01:10:43.724Z,78.87
2022-10-15T01:11:47.459Z,78.53
2022-10-15T01:12:55.461Z,78.69
2022-10-15T01:13:42.327Z,78.45
2022-10-15T01:14:36.952Z,78.50
2022-10-15T01:15:38.171Z,78.41
2022-10-15T01:16:23.520Z,78.98
2022-10-15T01:16:59.628Z,78.79
2022-10-15T01:17:42.658Z,79.36
2022-10-15T01:18:39.492Z,79.40
2022-10-15T01:19:17.100Z,79.27
2022-10-15T01:19:51.740Z,79.41
2022-10-15T01:20:36.688Z,79.20
2022-10-15T01:21:37.714Z,78.43
2022-10-15T01:22:25.014Z,78.28
2022-10-15T01:23:11.793Z,78.54
2022-10-15T01:24:22.253Z,78.59
2022-10-15T01:25:24.332Z,78.58
2022-10-15T01:26:02.432Z,79.31
2022-10-15T01:27:00.240Z,79.44
2022-10-15T01:27:44.385Z,79.29
2022-10-15T01:28:39.373Z,80.10
2022-10-15T01:29:45.561Z,79.67
2022-10-15T01:30:17.482Z,79.97
2022-10-15T01:31:12.558Z,79.66
2022-10-15T01:32:22.152Z,79.73
2022-10-15T01:33:10.603Z,78.83
2022-10-15T01:33:44.984Z,79.09
2022-10-15T01:34:33.928Z,79.47
2022-10-15T01:35:20.832Z,79.62
2022-10-15T01:36:02.695Z,79.62
2022-10-15T01:36:43.980Z,79.82
2022-10-15T01:37:42.323Z,79.62
2022-10-15T01:38:25.178Z,78.83
2022-10-15T01:39:05.212Z,79.04
2022-10-15T01:39:43.248Z,79.41
2022-10-15T01:40:24.168Z,79.36
2022-10-15T01:41:09.083Z,79.44
2022-10-15T01:41:46.895Z,79.54
2022-10-15T01:42:44.444Z,79.70
2022-10-15T01:43:30.667Z,79.78
2022-10-15T01:44:24.020Z,79.91
2022-10-15T01:45:02.854Z,80.14
2022-10-15T01:45:37.508Z,80.01
2022-10-15T01:46:16.994Z,79.87
2022-10-15T01:46:55.621Z,79.73
2022-10-15T01:47:37.992Z,79.88
2022-10-15T01:48:12.522Z,79.84
2022-10-15T01:48:44.472Z,80.15
2022-10-15T01:49:21.470Z,80.08
2022-10-15T01:49:55.088Z,80.13
2022-10-15T01:50:31.966Z,79.68
2022-10-15T01:51:06.374Z,79.44
2022-10-15T01:51:40.883Z,79.51
2022-10-15T01:52:21.241Z,79.54
2022-10-15T01:52:56.556Z,79.65
2022-10-15T01:53:29.581Z,79.82
2022-10-15T01:54:04.715Z,79.91
2022-10-15T01:54:37.418Z,79.94
2022-10-15T01:55:13.980Z,79.76
2022-10-15T01:55:48.645Z,80.45
2022-10-15T01:56:23.220Z,80.72
2022-10-15T01:56:57.200Z,80.48
2022-10-15T01:57:31.066Z,80.27
2022-10-15T01:58:07.173Z,80.21
2022-10-15T01:58:42.989Z,80.21
2022-10-15T01:59:15.336Z,80.03
2022-10-15T01:59:47.309Z,79.85
2022-10-15T02:00:20.243Z,79.53
2022-10-15T02:00:55.942Z,79.48
2022-10-15T02:01:28.578Z,79.65
2022-10-15T02:02:01.829Z,80.18
2022-10-15T02:02:33.676Z,80.31
2022-10-15T02:03:05.624Z,79.90
2022-10-15T02:03:46.751Z,79.41
2022-10-15T02:04:21.925Z,79.95
2022-10-15T02:04:53.793Z,80.36
2022-10-15T02:05:32.890Z,80.44
2022-10-15T02:06:11.031Z,80.06
2022-10-15T02:06:45.808Z,79.30
2022-10-15T02:07:38.978Z,79.74
2022-10-15T02:08:26.930Z,79.77
2022-10-15T02:09:08.271Z,79.54
2022-10-15T02:09:54.633Z,79.92
2022-10-15T02:10:32.019Z,80.39
2022-10-15T02:11:12.644Z,80.62
2022-10-15T02:11:57.252Z,80.20
2022-10-15T02:12:29.063Z,79.47
2022-10-15T02:13:08.939Z,79.18
2022-10-15T02:14:00.103Z,78.95
2022-10-15T02:14:47.946Z,79.33
2022-10-15T02:16:14.344Z,79.35
2022-10-15T02:17:04.522Z,79.46
2022-10-15T02:17:57.802Z,79.70
2022-10-15T02:18:55.411Z,79.47
2022-10-15T02:19:51.483Z,79.47
2022-10-15T02:20:29.043Z,79.68
2022-10-15T02:21:38.954Z,79.64
2022-10-15T02:22:24.307Z,79.81
2022-10-15T02:23:08.172Z,79.34
2022-10-15T02:23:53.838Z,79.21
2022-10-15T02:24:35.513Z,78.96
2022-10-15T02:25:16.875Z,78.85
2022-10-15T02:25:52.624Z,78.31
2022-10-15T02:26:27.991Z,78.67
2022-10-15T02:27:03.035Z,78.80
2022-10-15T02:27:39.274Z,78.83
2022-10-15T02:28:14.339Z,79.15
2022-10-15T02:28:54.600Z,78.97
2022-10-15T02:29:31.689Z,78.95
2022-10-15T02:30:08.542Z,79.85
2022-10-15T02:30:42.432Z,80.07
2022-10-15T02:31:18.839Z,79.80
2022-10-15T02:31:52.479Z,79.14
2022-10-15T02:32:25.485Z,79.26
2022-10-15T02:32:59.714Z,79.05
2022-10-15T02:33:33.895Z,79.01
2022-10-15T02:34:09.620Z,79.42
2022-10-15T02:34:42.426Z,79.89
2022-10-15T02:35:14.855Z,79.66
2022-10-15T02:35:49.330Z,79.30
2022-10-15T02:36:22.040Z,78.70
2022-10-15T02:36:57.396Z,78.49
2022-10-15T02:37:31.281Z,78.42
2022-10-15T02:38:07.837Z,78.69
2022-10-15T02:38:43.423Z,78.99
2022-10-15T02:39:20.878Z,78.76
2022-10-15T02:39:53.640Z,79.05
2022-10-15T02:40:29.572Z,79.52
2022-10-15T02:41:02.892Z,79.25
2022-10-15T02:41:36.218Z,79.81
2022-10-15T02:42:08.227Z,80.06
2022-10-15T02:42:40.526Z,79.93
2022-10-15T02:43:15.012Z,80.37
2022-10-15T02:43:47.461Z,80.44
2022-10-15T02:44:19.780Z,79.95
2022-10-15T02:44:51.745Z,79.53
2022-10-15T02:45:23.988Z,79.72
2022-10-15T02:45:56.189Z,79.82
2022-10-15T02:46:28.036Z,79.73
2022-10-15T02:47:00.293Z,79.92
2022-10-15T02:47:32.737Z,80.07
2022-10-15T02:48:07.795Z,80.20
2022-10-15T02:48:40.099Z,80.42
2022-10-15T02:49:11.935Z,79.90
2022-10-15T02:49:43.789Z,79.27
2022-10-15T02:50:16.114Z,79.69
2022-10-15T02:50:48.148Z,79.64
2022-10-15T02:51:20.318Z,79.72
2022-10-15T02:51:52.152Z,79.93
2022-10-15T02:52:24.328Z,79.85
2022-10-15T02:52:57.178Z,79.48
2022-10-15T02:53:29.011Z,79.97
2022-10-15T02:54:02.584Z,79.31
2022-10-15T02:54:34.589Z,80.23
2022-10-15T02:55:06.977Z,80.30
2022-10-15T02:55:38.811Z,80.41
2022-10-15T02:56:10.656Z,80.33
2022-10-15T02:56:42.960Z,80.21
2022-10-15T02:57:15.299Z,80.19
2022-10-15T02:57:47.631Z,80.23
2022-10-15T02:58:19.489Z,80.04
2022-10-15T02:58:51.466Z,79.92
2022-10-15T02:59:24.088Z,79.80
2022-10-15T02:59:56.008Z,78.94
2022-10-15T03:00:28.106Z,79.16
2022-10-15T03:01:00.817Z,79.62
2022-10-15T03:01:33.273Z,79.79
2022-10-15T03:02:05.746Z,80.07
2022-10-15T03:02:37.891Z,79.86
2022-10-15T03:03:11.078Z,80.04
2022-10-15T03:03:43.103Z,80.06
2022-10-15T03:04:15.122Z,80.62
2022-10-15T03:04:47.084Z,79.92
2022-10-15T03:05:19.722Z,79.98
2022-10-15T03:05:51.706Z,79.87
2022-10-15T03:06:24.279Z,79.85
2022-10-15T03:06:56.505Z,79.85
2022-10-15T03:07:28.675Z,80.46
2022-10-15T03:08:01.349Z,80.36
2022-10-15T03:08:33.375Z,80.09
2022-10-15T03:09:06.538Z,79.48
2022-10-15T03:09:38.704Z,79.62
2022-10-15T03:10:10.715Z,79.61
2022-10-15T03:10:45.627Z,79.42
2022-10-15T03:11:17.758Z,79.74
2022-10-15T03:11:49.645Z,79.83
2022-10-15T03:12:23.432Z,80.02
2022-10-15T03:13:01.529Z,79.98
2022-10-15T03:13:36.520Z,80.10
2022-10-15T03:14:08.407Z,79.79
2022-10-15T03:14:40.284Z,80.00
2022-10-15T03:15:12.216Z,80.02
2022-10-15T03:15:44.480Z,79.79
2022-10-15T03:16:18.039Z,79.35
2022-10-15T03:16:50.606Z,79.67
2022-10-15T03:17:22.892Z,80.14
2022-10-15T03:17:54.964Z,80.51
2022-10-15T03:18:27.418Z,80.67
2022-10-15T03:18:59.303Z,80.88
2022-10-15T03:19:31.524Z,80.65
2022-10-15T03:20:04.206Z,80.60
2022-10-15T03:20:36.320Z,80.53
2022-10-15T03:21:08.313Z,80.32
2022-10-15T03:21:40.286Z,80.06
2022-10-15T03:22:13.342Z,80.07
2022-10-15T03:22:45.573Z,79.97
2022-10-15T03:23:17.474Z,79.79
2022-10-15T03:23:49.867Z,79.73
2022-10-15T03:24:21.983Z,79.78
2022-10-15T03:24:53.972Z,79.30
2022-10-15T03:25:27.540Z,79.42
2022-10-15T03:26:01.930Z,79.79
2022-10-15T03:26:34.168Z,79.72
2022-10-15T03:27:06.110Z,79.44
2022-10-15T03:27:38.051Z,79.42
2022-10-15T03:28:14.542Z,79.34
2022-10-15T03:28:46.593Z,79.60
2022-10-15T03:29:19.091Z,80.17
2022-10-15T03:29:51.383Z,80.45
2022-10-15T03:30:24.032Z,80.62
2022-10-15T03:30:56.506Z,81.05
2022-10-15T03:31:28.361Z,81.02
2022-10-15T03:32:01.048Z,80.93
2022-10-15T03:32:36.147Z,80.49
2022-10-15T03:33:09.823Z,80.37
2022-10-15T03:33:41.728Z,80.22
2022-10-15T03:34:13.638Z,80.15
2022-10-15T03:34:46.089Z,80.63
2022-10-15T03:35:18.313Z,80.86
2022-10-15T03:35:50.261Z,81.10
2022-10-15T03:36:22.584Z,80.94
2022-10-15T03:36:54.609Z,80.95
2022-10-15T03:37:26.917Z,81.22
2022-10-15T03:37:59.646Z,81.22
2022-10-15T03:38:31.712Z,81.11
2022-10-15T03:39:04.812Z,81.58
2022-10-15T03:39:37.052Z,81.75
2022-10-15T03:40:13.623Z,81.83
2022-10-15T03:40:46.894Z,81.67
2022-10-15T03:41:20.487Z,81.22
2022-10-15T03:41:53.923Z,81.48
2022-10-15T03:42:27.089Z,80.93
2022-10-15T03:42:59.106Z,80.86
2022-10-15T03:43:31.372Z,81.05
2022-10-15T03:44:07.155Z,80.67
2022-10-15T03:44:39.444Z,80.94
2022-10-15T03:45:12.186Z,80.79
2022-10-15T03:45:44.122Z,80.63
2022-10-15T03:46:16.564Z,80.21
2022-10-15T03:46:48.729Z,79.95
2022-10-15T03:47:22.024Z,79.73
2022-10-15T03:47:54.159Z,80.46
2022-10-15T03:48:26.027Z,80.36
2022-10-15T03:48:58.340Z,79.97
2022-10-15T03:49:30.291Z,79.55
2022-10-15T03:50:02.257Z,79.72
2022-10-15T03:50:34.996Z,79.86
2022-10-15T03:51:07.373Z,79.93
2022-10-15T03:51:39.242Z,79.96
2022-10-15T03:52:11.395Z,79.94
2022-10-15T03:52:43.873Z,80.21
2022-10-15T03:53:17.452Z,80.44
2022-10-15T03:53:49.781Z,79.82
2022-10-15T03:54:21.771Z,79.54
2022-10-15T03:54:55.336Z,79.50
2022-10-15T03:55:27.152Z,80.61
2022-10-15T03:56:06.160Z,80.18
2022-10-15T03:56:38.835Z,80.04
2022-10-15T03:57:11.202Z,80.39
2022-10-15T03:57:43.475Z,80.24
2022-10-15T03:58:15.367Z,80.05
2022-10-15T03:58:48.198Z,80.06
2022-10-15T03:59:20.298Z,79.72
2022-10-15T03:59:55.280Z,79.58
2022-10-15T04:00:28.869Z,80.49
2022-10-15T04:01:01.658Z,81.01
2022-10-15T04:01:33.639Z,80.85
2022-10-15T04:02:06.202Z,80.56
2022-10-15T04:02:38.222Z,80.40
2022-10-15T04:03:14.030Z,80.55
2022-10-15T04:03:46.198Z,79.83
2022-10-15T04:04:19.511Z,79.87
2022-10-15T04:04:55.228Z,80.53
2022-10-15T04:05:28.256Z,81.18
2022-10-15T04:06:02.708Z,81.35
2022-10-15T04:06:35.682Z,80.59
2022-10-15T04:07:09.420Z,80.72
2022-10-15T04:07:42.814Z,80.96
2022-10-15T04:08:15.925Z,80.86
2022-10-15T04:08:47.849Z,81.06
2022-10-15T04:09:22.105Z,81.06
2022-10-15T04:09:54.119Z,80.90
2022-10-15T04:10:26.259Z,81.03
2022-10-15T04:10:59.421Z,81.21
2022-10-15T04:11:31.520Z,80.52
2022-10-15T04:12:04.672Z,80.64
2022-10-15T04:12:36.632Z,80.54
2022-10-15T04:13:08.733Z,80.57
2022-10-15T04:13:40.853Z,80.44
2022-10-15T04:14:13.259Z,80.65
2022-10-15T04:14:45.148Z,81.04
2022-10-15T04:15:17.299Z,80.93
2022-10-15T04:15:49.819Z,81.05
2022-10-15T04:16:22.426Z,81.36
2022-10-15T04:16:56.182Z,81.37
2022-10-15T04:17:28.431Z,81.23
2022-10-15T04:18:00.336Z,81.30
2022-10-15T04:18:33.172Z,80.73
2022-10-15T04:19:07.358Z,80.38
2022-10-15T04:19:42.291Z,80.50
2022-10-15T04:20:14.169Z,80.71
2022-10-15T04:20:50.857Z,80.64
2022-10-15T04:21:23.002Z,80.67
2022-10-15T04:21:55.081Z,80.83
2022-10-15T04:22:29.604Z,80.99
2022-10-15T04:23:01.844Z,80.95
2022-10-15T04:23:33.811Z,80.81
2022-10-15T04:24:10.648Z,81.23
2022-10-15T04:24:43.386Z,81.65
2022-10-15T04:25:17.724Z,81.35
2022-10-15T04:25:50.031Z,80.64
2022-10-15T04:26:22.568Z,80.48
2022-10-15T04:26:55.243Z,80.61
2022-10-15T04:27:27.205Z,80.55
2022-10-15T04:28:04.100Z,80.68
2022-10-15T04:28:36.649Z,80.79
2022-10-15T04:29:09.038Z,81.01
2022-10-15T04:29:41.195Z,81.20
2022-10-15T04:30:14.503Z,80.96
2022-10-15T04:30:46.553Z,80.76
2022-10-15T04:31:19.250Z,80.60
2022-10-15T04:31:51.966Z,80.52
2022-10-15T04:32:24.635Z,80.67
2022-10-15T04:32:56.720Z,80.66
2022-10-15T04:33:29.470Z,80.77
2022-10-15T04:34:01.808Z,81.08
2022-10-15T04:34:35.178Z,80.72
2022-10-15T04:35:08.251Z,81.86
2022-10-15T04:35:43.655Z,81.79
2022-10-15T04:36:49.871Z,80.93
2022-10-15T04:37:23.214Z,80.89
2022-10-15T04:37:58.800Z,82.16
2022-10-15T04:38:32.090Z,81.72
2022-10-15T04:39:05.313Z,81.78
2022-10-15T04:39:37.606Z,80.96
2022-10-15T04:40:10.199Z,81.78
2022-10-15T04:40:42.057Z,81.88
2022-10-15T04:41:13.978Z,81.67
2022-10-15T04:41:46.918Z,81.50
2022-10-15T04:42:19.278Z,80.94
2022-10-15T04:42:51.156Z,81.07
2022-10-15T04:43:23.529Z,81.26
2022-10-15T04:43:57.865Z,81.26
2022-10-15T04:44:30.036Z,80.87
2022-10-15T04:45:02.039Z,80.58
2022-10-15T04:45:34.003Z,80.76
2022-10-15T04:46:07.180Z,80.84
2022-10-15T04:46:39.424Z,80.63
2022-10-15T04:47:13.969Z,80.67
2022-10-15T04:47:46.455Z,80.95
2022-10-15T04:48:19.205Z,81.30
2022-10-15T04:48:53.253Z,81.25
2022-10-15T04:49:25.441Z,80.83
2022-10-15T04:49:57.652Z,81.26
2022-10-15T04:50:30.198Z,81.54
2022-10-15T04:51:16.707Z,82.30
2022-10-15T04:51:49.136Z,83.03
2022-10-15T04:52:22.390Z,82.67
2022-10-15T04:52:54.631Z,82.10
2022-10-15T04:53:26.729Z,81.76
2022-10-15T04:53:58.636Z,81.36
2022-10-15T04:54:30.848Z,81.28
2022-10-15T04:55:04.756Z,81.08
2022-10-15T04:55:36.700Z,80.94
2022-10-15T04:56:13.759Z,81.07
2022-10-15T04:56:45.615Z,80.52
2022-10-15T04:57:17.507Z,80.34
2022-10-15T04:57:50.247Z,79.48
2022-10-15T04:58:26.948Z,80.12
2022-10-15T04:58:59.215Z,80.46
2022-10-15T04:59:32.888Z,80.57
2022-10-15T05:00:07.771Z,80.07
2022-10-15T05:00:45.919Z,79.97
2022-10-15T05:01:21.262Z,80.18
2022-10-15T05:01:53.681Z,80.61
2022-10-15T05:02:25.621Z,80.56
2022-10-15T05:02:58.011Z,81.53
2022-10-15T05:03:31.104Z,81.62
2022-10-15T05:04:03.204Z,81.86
2022-10-15T05:04:37.961Z,82.04
2022-10-15T05:05:10.105Z,82.42
2022-10-15T05:05:46.326Z,83.17
2022-10-15T05:06:21.091Z,83.49
2022-10-15T05:06:53.443Z,84.56
2022-10-15T05:07:26.451Z,85.00
2022-10-15T05:08:03.195Z,84.93
2022-10-15T05:08:36.699Z,84.40
2022-10-15T05:09:10.061Z,84.04
2022-10-15T05:09:46.176Z,83.58
2022-10-15T05:10:18.523Z,83.10
2022-10-15T05:10:50.686Z,82.73
2022-10-15T05:11:25.405Z,83.63
2022-10-15T05:11:58.146Z,83.43
2022-10-15T05:12:31.868Z,83.23
2022-10-15T05:13:03.854Z,82.90
2022-10-15T05:13:36.422Z,82.23
2022-10-15T05:14:09.325Z,83.48
2022-10-15T05:14:41.959Z,83.48
2022-10-15T05:15:14.438Z,83.37
2022-10-15T05:15:46.398Z,83.69
2022-10-15T05:16:23.669Z,83.61
2022-10-15T05:16:55.709Z,83.34
2022-10-15T05:17:27.835Z,83.22
2022-10-15T05:17:59.940Z,83.25
2022-10-15T05:18:33.876Z,83.17
2022-10-15T05:19:07.314Z,83.19
2022-10-15T05:19:39.359Z,83.21
2022-10-15T05:20:11.965Z,83.00
2022-10-15T05:20:44.606Z,82.55
2022-10-15T05:21:18.172Z,82.76
2022-10-15T05:21:50.594Z,82.72
2022-10-15T05:22:25.385Z,82.85
2022-10-15T05:22:57.881Z,82.87
2022-10-15T05:23:33.380Z,82.35
2022-10-15T05:24:07.272Z,82.37
2022-10-15T05:24:44.013Z,82.35
2022-10-15T05:25:16.083Z,82.15
2022-10-15T05:25:51.724Z,81.74
2022-10-15T05:26:28.505Z,81.73
2022-10-15T05:27:02.951Z,81.86
2022-10-15T05:27:36.787Z,81.81
2022-10-15T05:28:08.948Z,81.90
2022-10-15T05:28:41.172Z,89.21
2022-10-15T05:29:13.789Z,86.94
2022-10-15T05:29:45.644Z,84.75
2022-10-15T05:30:17.506Z,83.68
2022-10-15T05:30:50.318Z,83.21
2022-10-15T05:31:24.645Z,82.87
2022-10-15T05:32:00.803Z,82.28
2022-10-15T05:32:33.437Z,82.25
2022-10-15T05:33:05.326Z,82.24
2022-10-15T05:33:37.286Z,82.03
2022-10-15T05:34:09.684Z,81.38
2022-10-15T05:34:42.316Z,81.16
2022-10-15T05:35:15.486Z,81.19
2022-10-15T05:35:51.019Z,81.32
2022-10-15T05:36:27.107Z,81.54
2022-10-15T05:36:59.986Z,81.81
2022-10-15T05:37:31.863Z,81.96
2022-10-15T05:38:04.706Z,81.83
2022-10-15T05:38:36.857Z,81.56
2022-10-15T05:39:10.723Z,81.45
2022-10-15T05:39:44.358Z,81.12
2022-10-15T05:40:19.609Z,80.98
2022-10-15T05:40:56.351Z,81.33
2022-10-15T05:41:29.561Z,81.83
2022-10-15T05:42:01.446Z,81.60
2022-10-15T05:42:33.827Z,81.47
2022-10-15T05:43:05.758Z,81.18
2022-10-15T05:43:40.490Z,80.78
2022-10-15T05:44:15.149Z,80.38
2022-10-15T05:44:47.059Z,79.99
2022-10-15T05:45:19.226Z,79.90
2022-10-15T05:45:54.863Z,79.84
2022-10-15T05:46:28.123Z,79.68
2022-10-15T05:47:00.487Z,79.49
2022-10-15T05:47:32.654Z,79.23
2022-10-15T05:48:15.772Z,79.00
2022-10-15T05:48:52.272Z,78.91
2022-10-15T05:49:24.708Z,79.34
2022-10-15T05:49:57.815Z,78.86
2022-10-15T05:50:30.964Z,78.30
2022-10-15T05:51:05.326Z,77.67
2022-10-15T05:51:37.920Z,76.88
2022-10-15T05:52:12.522Z,76.19
2022-10-15T05:52:44.957Z,74.94
2022-10-15T05:53:17.323Z,73.69
2022-10-15T05:53:52.624Z,71.92
2022-10-15T05:54:24.608Z,70.47
2022-10-15T05:54:56.441Z,70.12
2022-10-15T05:55:28.299Z,69.22
2022-10-15T05:56:00.498Z,68.14
2022-10-15T05:56:36.065Z,67.62
2022-10-15T05:57:08.434Z,66.72
2022-10-15T05:57:40.578Z,66.06
2022-10-15T05:58:12.436Z,66.01
2022-10-15T05:58:44.340Z,65.67
2022-10-15T05:59:16.161Z,65.75
2022-10-15T05:59:48.024Z,66.18
2022-10-15T06:00:20.051Z,66.60
2022-10-15T06:00:58.843Z,66.33
2022-10-15T06:01:30.959Z,66.69
2022-10-15T06:02:02.986Z,66.84
2022-10-15T06:02:35.039Z,67.41
2022-10-15T06:03:07.051Z,67.74
2022-10-15T06:03:40.684Z,68.39
2022-10-15T06:04:14.107Z,68.59
2022-10-15T06:04:48.507Z,68.30
2022-10-15T06:05:20.349Z,68.98
2022-10-15T06:05:52.645Z,69.07
2022-10-15T06:06:26.572Z,68.51
2022-10-15T06:06:58.782Z,67.72
2022-10-15T06:07:32.241Z,67.00
2022-10-15T06:08:08.621Z,67.92
2022-10-15T06:08:40.457Z,68.48
2022-10-15T06:09:12.269Z,68.62
2022-10-15T06:09:44.100Z,68.56
2022-10-15T06:10:16.497Z,68.15
2022-10-15T06:11:22.027Z,66.98
2022-10-15T06:11:53.861Z,66.17
2022-10-15T06:12:27.828Z,64.78
2022-10-15T06:12:59.800Z,63.77
2022-10-15T06:13:31.677Z,63.17
2022-10-15T06:14:03.549Z,61.71
2022-10-15T06:14:35.465Z,60.59
2022-10-15T06:15:07.682Z,59.94
2022-10-15T06:15:43.777Z,58.84
2022-10-15T06:16:23.625Z,57.80
2022-10-15T06:16:57.460Z,56.52
2022-10-15T06:17:31.458Z,55.25
2022-10-15T06:18:03.731Z,54.61
2022-10-15T06:18:36.866Z,53.59
2022-10-15T06:19:08.979Z,53.80
2022-10-15T06:19:40.818Z,53.54
2022-10-15T06:20:13.548Z,52.86
2022-10-15T06:20:51.695Z,51.95
2022-10-15T06:21:23.592Z,51.08
2022-10-15T06:21:55.456Z,50.10
2022-10-15T06:22:31.067Z,49.61
2022-10-15T06:23:04.221Z,49.30
2022-10-15T06:23:36.756Z,50.20
2022-10-15T06:24:10.137Z,50.41
2022-10-15T06:24:42.159Z,50.16
2022-10-15T06:25:14.446Z,49.92
2022-10-15T06:25:46.327Z,49.42
2022-10-15T06:26:18.331Z,49.55
2022-10-15T06:26:52.928Z,48.90
2022-10-15T06:27:25.088Z,48.26
2022-10-15T06:28:04.094Z,47.67
2022-10-15T06:28:40.609Z,47.30
2022-10-15T06:29:12.608Z,47.42
2022-10-15T06:29:44.479Z,48.38
2022-10-15T06:30:16.441Z,49.15
2022-10-15T06:30:48.335Z,49.92
2022-10-15T06:31:20.282Z,51.83
2022-10-15T06:31:52.100Z,52.94
2022-10-15T06:32:23.919Z,53.56
2022-10-15T06:32:55.872Z,51.99
2022-10-15T06:33:28.869Z,52.38
2022-10-15T06:34:00.720Z,52.22
2022-10-15T06:34:32.597Z,54.19
2022-10-15T06:35:04.849Z,52.94
2022-10-15T06:35:38.539Z,53.12
2022-10-15T06:36:13.950Z,54.16
2022-10-15T06:36:45.859Z,54.62
2022-10-15T06:37:17.672Z,54.99
2022-10-15T06:37:49.931Z,56.08
2022-10-15T06:38:21.916Z,56.80
2022-10-15T06:38:54.424Z,57.07
2022-10-15T06:39:26.316Z,57.32
2022-10-15T06:39:58.165Z,57.06
2022-10-15T06:40:30.782Z,56.79
2022-10-15T06:41:07.104Z,56.78
2022-10-15T06:41:38.904Z,56.20
2022-10-15T06:42:10.768Z,56.48
2022-10-15T06:42:43.510Z,56.50
2022-10-15T06:43:15.322Z,56.60
2022-10-15T06:43:50.022Z,57.03
2022-10-15T06:44:22.265Z,58.94
2022-10-15T06:44:54.133Z,59.07
2022-10-15T06:45:26.002Z,59.38
2022-10-15T06:46:00.149Z,59.61
2022-10-15T06:46:32.004Z,60.52
2022-10-15T06:47:03.899Z,60.12
2022-10-15T06:47:35.897Z,60.47
2022-10-15T06:48:08.297Z,60.40
2022-10-15T06:48:40.183Z,60.21
2022-10-15T06:49:12.078Z,60.52
2022-10-15T06:49:47.905Z,62.60
2022-10-15T06:50:20.190Z,62.27
2022-10-15T06:50:52.063Z,61.88
2022-10-15T06:51:23.880Z,61.82
2022-10-15T06:51:59.532Z,61.96
2022-10-15T06:52:34.481Z,61.60
2022-10-15T06:53:07.222Z,61.16
2022-10-15T06:53:41.176Z,61.11
2022-10-15T06:54:13.046Z,61.80
2022-10-15T06:54:45.187Z,61.27
2022-10-15T06:55:18.913Z,60.33
2022-10-15T06:55:50.833Z,59.80
2022-10-15T06:56:23.244Z,60.85
2022-10-15T06:56:55.130Z,61.43
2022-10-15T06:57:30.601Z,63.08
2022-10-15T06:58:02.491Z,62.89
2022-10-15T06:58:34.347Z,62.28
2022-10-15T06:59:06.240Z,62.12
2022-10-15T06:59:41.212Z,61.98
2022-10-15T07:00:14.415Z,61.80
2022-10-15T07:00:46.454Z,61.32
2022-10-15T07:01:18.514Z,61.56
2022-10-15T07:01:50.441Z,62.36
2022-10-15T07:02:24.949Z,62.77
2022-10-15T07:03:03.862Z,62.64
2022-10-15T07:03:38.929Z,61.99
2022-10-15T07:04:11.867Z,62.33
2022-10-15T07:04:43.749Z,62.81
2022-10-15T07:05:20.791Z,62.50
2022-10-15T07:05:52.651Z,62.79
2022-10-15T07:06:25.661Z,63.01
2022-10-15T07:06:57.467Z,64.66
2022-10-15T07:07:29.355Z,64.26
2022-10-15T07:08:01.288Z,63.18
2022-10-15T07:08:35.945Z,62.31
2022-10-15T07:09:07.787Z,62.16
2022-10-15T07:09:39.819Z,62.95
2022-10-15T07:10:11.763Z,63.08
2022-10-15T07:10:45.032Z,62.75
2022-10-15T07:11:18.144Z,62.76
2022-10-15T07:11:50.120Z,62.28
2022-10-15T07:12:22.481Z,62.03
2022-10-15T07:12:55.028Z,61.59
2022-10-15T07:13:26.983Z,61.67
2022-10-15T07:13:58.810Z,62.18
2022-10-15T07:14:30.795Z,61.77
2022-10-15T07:15:02.653Z,61.59
2022-10-15T07:15:34.551Z,61.19
2022-10-15T07:16:11.278Z,60.92
2022-10-15T07:16:43.150Z,60.65
2022-10-15T07:17:16.280Z,60.74
2022-10-15T07:17:49.517Z,60.78
2022-10-15T07:18:21.549Z,61.33
2022-10-15T07:18:53.353Z,61.86
2022-10-15T07:19:25.619Z,62.09
2022-10-15T07:19:57.543Z,63.16
2022-10-15T07:20:30.614Z,62.66
2022-10-15T07:21:06.228Z,61.69
2022-10-15T07:21:38.365Z,60.88
2022-10-15T07:22:11.045Z,60.48
2022-10-15T07:22:43.046Z,60.38
2022-10-15T07:23:14.919Z,60.51
2022-10-15T07:23:46.779Z,60.24
2022-10-15T07:24:18.628Z,60.42
2022-10-15T07:24:50.432Z,60.65
2022-10-15T07:25:22.337Z,60.75
2022-10-15T07:25:54.630Z,61.48
2022-10-15T07:26:29.271Z,61.36
2022-10-15T07:27:08.044Z,61.21
2022-10-15T07:27:48.926Z,61.21